createdAt,value
2023-05-22T00:01:30.174Z,4.57
2023-05-22T00:03:57.416Z,4.82
2023-05-22T00:27:48.746Z,6.07
2023-05-22T00:30:16.083Z,7.43
2023-05-22T00:32:43.306Z,5.07
2023-05-22T00:35:10.825Z,4.15
2023-05-22T00:37:38.307Z,4.60
2023-05-22T00:40:08.564Z,7.20
2023-05-22T00:42:35.855Z,7.18
2023-05-22T00:45:03.625Z,6.82
2023-05-22T00:47:32.412Z,6.60
2023-05-22T00:50:00.924Z,7.15
2023-05-22T00:52:28.145Z,8.32
2023-05-22T00:54:55.338Z,5.80
2023-05-22T00:57:24.654Z,7.70
2023-05-22T00:59:52.338Z,3.75
2023-05-22T01:02:20.823Z,7.13
2023-05-22T01:04:48.638Z,7.68
2023-05-22T01:07:19.456Z,5.38
2023-05-22T01:09:47.148Z,6.45
2023-05-22T01:12:26.285Z,7.15
2023-05-22T01:15:11.231Z,3.28
2023-05-22T01:18:19.852Z,5.45
2023-05-22T01:21:10.418Z,5.95
2023-05-22T01:23:55.550Z,3.35
2023-05-22T01:26:48.411Z,2.95
2023-05-22T01:29:42.453Z,4.35
2023-05-22T01:32:16.408Z,3.83
2023-05-22T01:34:47.761Z,5.93
2023-05-22T01:37:16.542Z,6.45
2023-05-22T01:39:44.390Z,6.70
2023-05-22T01:42:11.807Z,8.75
2023-05-22T01:44:38.952Z,3.20
2023-05-22T01:47:08.310Z,9.02
2023-05-22T01:49:36.939Z,4.57
2023-05-22T01:52:29.125Z,4.25
2023-05-22T01:55:04.097Z,6.30
2023-05-22T01:57:43.651Z,6.32
2023-05-22T02:00:15.765Z,6.07
2023-05-22T02:02:49.585Z,4.50
2023-05-22T02:05:22.461Z,6.97
2023-05-22T02:07:50.939Z,8.20
2023-05-22T02:10:20.054Z,4.80
2023-05-22T02:12:47.542Z,6.13
2023-05-22T02:15:15.361Z,7.30
2023-05-22T02:17:43.103Z,5.43
2023-05-22T02:20:14.564Z,5.78
2023-05-22T02:22:47.502Z,5.60
2023-05-22T02:25:17.252Z,6.00
2023-05-22T02:27:47.095Z,4.43
2023-05-22T02:30:15.730Z,3.75
2023-05-22T02:32:44.892Z,6.65
2023-05-22T02:35:12.388Z,5.65
2023-05-22T02:37:39.650Z,5.78
2023-05-22T02:40:08.170Z,6.88
2023-05-22T02:42:35.518Z,6.07
2023-05-22T02:45:03.205Z,4.13
2023-05-22T02:47:33.486Z,5.82
2023-05-22T02:50:00.834Z,4.95
2023-05-22T02:52:28.462Z,10.07
2023-05-22T02:54:55.778Z,11.20
2023-05-22T02:57:23.696Z,9.73
2023-05-22T02:59:51.307Z,4.05
2023-05-22T03:02:19.784Z,9.05
2023-05-22T03:04:48.728Z,9.57
2023-05-22T03:07:17.019Z,7.95
2023-05-22T03:09:44.370Z,6.60
2023-05-22T03:12:12.360Z,7.75
2023-05-22T03:14:39.669Z,6.38
2023-05-22T03:17:06.903Z,4.90
2023-05-22T03:19:34.272Z,10.07
2023-05-22T03:22:01.490Z,6.35
2023-05-22T03:24:29.777Z,7.35
2023-05-22T03:26:57.026Z,5.80
2023-05-22T03:29:33.710Z,7.90
2023-05-22T03:32:03.546Z,5.97
2023-05-22T03:34:32.293Z,4.53
2023-05-22T03:37:00.530Z,6.22
2023-05-22T03:39:27.713Z,6.53
2023-05-22T03:41:59.717Z,4.82
2023-05-22T03:44:27.444Z,4.78
2023-05-22T03:46:55.088Z,6.93
2023-05-22T03:49:22.237Z,5.72
2023-05-22T03:51:49.472Z,5.68
2023-05-22T03:54:16.701Z,7.75
2023-05-22T03:56:44.412Z,7.07
2023-05-22T03:59:11.798Z,11.38
2023-05-22T04:01:40.018Z,6.25
2023-05-22T04:04:07.221Z,7.20
2023-05-22T04:06:43.049Z,7.28
2023-05-22T04:09:13.392Z,10.73
2023-05-22T04:11:42.232Z,6.45
2023-05-22T04:14:09.943Z,7.53
2023-05-22T04:16:37.124Z,7.13
2023-05-22T04:19:04.450Z,8.85
2023-05-22T04:21:35.690Z,5.53
2023-05-22T04:24:07.355Z,7.75
2023-05-22T04:26:34.984Z,6.82
2023-05-22T04:29:03.785Z,10.10
2023-05-22T04:31:31.029Z,6.30
2023-05-22T04:34:00.163Z,9.57
2023-05-22T04:36:28.051Z,7.70
2023-05-22T04:38:55.649Z,10.05
2023-05-22T04:41:26.513Z,9.73
2023-05-22T04:43:54.898Z,10.45
2023-05-22T04:46:22.950Z,9.50
2023-05-22T04:48:51.141Z,8.63
2023-05-22T04:51:18.765Z,9.15
2023-05-22T04:53:46.433Z,10.55
2023-05-22T04:56:16.553Z,8.70
2023-05-22T04:58:45.982Z,8.15
2023-05-22T05:01:13.173Z,9.30
2023-05-22T05:03:40.407Z,11.25
2023-05-22T05:06:08.714Z,10.10
2023-05-22T05:08:36.925Z,9.98
2023-05-22T05:11:04.207Z,12.65
2023-05-22T05:13:31.579Z,12.88
2023-05-22T05:15:59.769Z,9.90
2023-05-22T05:18:28.320Z,8.77
2023-05-22T05:20:55.684Z,13.20
2023-05-22T05:23:22.931Z,10.93
2023-05-22T05:25:50.174Z,12.85
2023-05-22T05:28:17.367Z,16.17
2023-05-22T05:30:44.597Z,9.30
2023-05-22T05:33:30.846Z,7.68
2023-05-22T05:36:07.881Z,11.60
2023-05-22T05:38:36.192Z,9.07
2023-05-22T05:41:03.357Z,6.60
2023-05-22T05:43:31.055Z,7.88
2023-05-22T05:46:03.971Z,9.20
2023-05-22T05:48:31.400Z,10.73
2023-05-22T05:50:59.383Z,9.75
2023-05-22T05:53:29.186Z,9.57
2023-05-22T05:55:58.894Z,7.82
2023-05-22T05:58:27.871Z,12.73
2023-05-22T06:01:16.061Z,12.20
2023-05-22T06:03:43.431Z,8.25
2023-05-22T06:06:17.666Z,7.90
2023-05-22T06:09:23.621Z,9.45
2023-05-22T06:12:06.649Z,8.00
2023-05-22T06:14:34.042Z,6.30
2023-05-22T06:17:01.208Z,8.68
2023-05-22T06:19:28.650Z,7.47
2023-05-22T06:21:56.109Z,8.98
2023-05-22T06:24:23.759Z,7.50
2023-05-22T06:26:50.996Z,6.90
2023-05-22T06:29:18.506Z,8.05
2023-05-22T06:31:47.667Z,8.82
2023-05-22T06:34:18.500Z,6.88
2023-05-22T06:36:46.087Z,7.43
2023-05-22T06:39:14.076Z,9.57
2023-05-22T06:42:07.990Z,8.40
2023-05-22T06:44:53.697Z,7.68
2023-05-22T06:47:22.000Z,11.50
2023-05-22T06:49:49.211Z,6.95
2023-05-22T06:52:16.429Z,5.95
2023-05-22T06:54:44.594Z,6.25
2023-05-22T06:57:15.352Z,7.22
2023-05-22T06:59:42.638Z,8.65
2023-05-22T07:02:24.558Z,10.77
2023-05-22T07:05:18.107Z,7.35
2023-05-22T07:07:54.182Z,10.48
2023-05-22T07:10:21.479Z,9.73
2023-05-22T07:12:48.722Z,11.93
2023-05-22T07:15:16.135Z,10.07
2023-05-22T07:17:49.338Z,8.82
2023-05-22T07:20:17.811Z,6.70
2023-05-22T07:22:54.180Z,6.97
2023-05-22T07:25:22.213Z,7.72
2023-05-22T07:27:49.399Z,9.15
2023-05-22T07:30:19.452Z,7.00
2023-05-22T07:32:48.726Z,10.20
2023-05-22T07:35:16.215Z,10.93
2023-05-22T07:37:43.452Z,6.72
2023-05-22T07:40:11.312Z,8.05
2023-05-22T07:42:38.733Z,8.65
2023-05-22T07:45:08.096Z,8.45
2023-05-22T07:47:35.407Z,6.88
2023-05-22T07:50:05.336Z,8.52
2023-05-22T07:52:35.096Z,8.23
2023-05-22T07:55:03.025Z,9.20
2023-05-22T07:57:31.460Z,7.43
2023-05-22T08:00:14.228Z,11.68
2023-05-22T08:02:42.010Z,10.88
2023-05-22T08:05:10.265Z,10.32
2023-05-22T08:07:37.887Z,6.72
2023-05-22T08:10:13.415Z,6.80
2023-05-22T08:12:40.808Z,7.80
2023-05-22T08:15:08.521Z,6.78
2023-05-22T08:17:36.184Z,5.03
2023-05-22T08:20:04.120Z,9.55
2023-05-22T08:22:31.542Z,8.27
2023-05-22T08:24:58.698Z,10.57
2023-05-22T08:27:25.929Z,9.10
2023-05-22T08:29:53.266Z,10.95
2023-05-22T08:32:20.566Z,6.03
2023-05-22T08:34:48.030Z,8.50
2023-05-22T08:37:15.413Z,6.32
2023-05-22T08:39:42.765Z,5.40
2023-05-22T08:42:10.081Z,8.30
2023-05-22T08:44:37.482Z,8.43
2023-05-22T08:47:09.952Z,6.60
2023-05-22T08:49:40.448Z,7.85
2023-05-22T08:52:14.674Z,9.25
2023-05-22T08:54:43.469Z,4.70
2023-05-22T08:57:11.364Z,5.30
2023-05-22T08:59:40.614Z,7.82
2023-05-22T09:02:08.984Z,8.07
2023-05-22T09:04:36.376Z,8.85
2023-05-22T09:07:06.114Z,9.45
2023-05-22T09:09:38.126Z,4.88
2023-05-22T09:12:09.991Z,4.55
2023-05-22T09:14:44.267Z,6.80
2023-05-22T09:17:16.265Z,8.98
2023-05-22T09:19:46.052Z,5.57
2023-05-22T09:22:14.358Z,8.50
2023-05-22T09:24:42.724Z,7.40
2023-05-22T09:27:11.559Z,8.52
2023-05-22T09:29:51.623Z,6.00
2023-05-22T09:32:19.704Z,9.52
2023-05-22T09:34:47.412Z,5.35
2023-05-22T09:37:18.158Z,8.20
2023-05-22T09:39:47.605Z,8.30
2023-05-22T09:42:18.691Z,6.78
2023-05-22T09:44:50.000Z,6.40
2023-05-22T09:47:17.760Z,6.77
2023-05-22T09:49:46.092Z,7.57
2023-05-22T09:52:13.386Z,5.53
2023-05-22T09:54:57.854Z,13.23
2023-05-22T09:57:27.289Z,7.82
2023-05-22T09:59:58.348Z,6.35
2023-05-22T10:02:28.309Z,6.35
2023-05-22T10:04:56.169Z,7.72
2023-05-22T10:07:26.029Z,6.63
2023-05-22T10:10:02.335Z,10.70
2023-05-22T10:12:33.903Z,7.75
2023-05-22T10:15:02.946Z,8.27
2023-05-22T10:17:31.860Z,8.88
2023-05-22T10:19:59.270Z,7.72
2023-05-22T10:22:27.952Z,5.65
2023-05-22T10:24:55.612Z,8.10
2023-05-22T10:27:22.872Z,5.20
2023-05-22T10:30:11.493Z,5.40
2023-05-22T10:32:59.970Z,7.57
2023-05-22T10:38:17.258Z,7.05
2023-05-22T10:40:46.722Z,5.32
2023-05-22T10:43:14.225Z,7.72
2023-05-22T10:48:11.936Z,4.28
2023-05-22T10:50:40.164Z,6.50
2023-05-22T10:53:28.306Z,5.20
2023-05-22T10:55:57.185Z,9.10
2023-05-22T10:58:32.151Z,6.13
2023-05-22T11:01:17.275Z,6.78
2023-05-22T11:03:54.765Z,5.78
2023-05-22T11:06:41.587Z,7.75
2023-05-22T11:09:29.143Z,8.15
2023-05-22T11:12:19.537Z,9.45
2023-05-22T11:15:02.534Z,11.10
2023-05-22T11:17:32.931Z,7.15
2023-05-22T11:20:08.308Z,8.15
2023-05-22T11:22:42.750Z,10.45
2023-05-22T11:25:11.806Z,7.35
2023-05-22T11:27:41.306Z,8.75
2023-05-22T11:30:09.791Z,9.20
2023-05-22T11:32:38.626Z,5.75
2023-05-22T11:35:08.244Z,7.18
2023-05-22T11:37:40.008Z,8.07
2023-05-22T11:40:08.157Z,6.25
2023-05-22T11:42:36.101Z,4.35
2023-05-22T11:45:04.513Z,11.15
2023-05-22T11:47:33.384Z,6.22
2023-05-22T11:50:01.630Z,5.13
2023-05-22T11:52:37.268Z,6.25
2023-05-22T11:55:08.463Z,7.05
2023-05-22T11:57:36.106Z,7.97
2023-05-22T12:00:06.507Z,7.95
2023-05-22T12:02:44.496Z,5.05
2023-05-22T12:07:39.384Z,6.75
2023-05-22T12:10:07.531Z,6.80
2023-05-22T12:12:34.928Z,7.85
2023-05-22T12:15:06.354Z,6.40
2023-05-22T12:17:37.259Z,11.40
2023-05-22T12:20:05.697Z,6.22
2023-05-22T12:22:33.105Z,5.97
2023-05-22T12:25:00.232Z,15.07
2023-05-22T12:27:33.240Z,9.95
2023-05-22T12:30:10.316Z,15.68
2023-05-22T12:32:37.543Z,5.80
2023-05-22T12:35:05.238Z,5.97
2023-05-22T12:37:34.093Z,5.57
2023-05-22T12:40:03.507Z,6.07
2023-05-22T12:42:31.363Z,3.83
2023-05-22T12:45:00.630Z,6.15
2023-05-22T12:47:28.140Z,5.68
2023-05-22T12:49:55.491Z,5.03
2023-05-22T12:52:22.773Z,9.23
2023-05-22T12:54:50.912Z,6.10
2023-05-22T12:57:18.088Z,5.60
2023-05-22T12:59:45.344Z,5.70
2023-05-22T13:02:12.554Z,5.13
2023-05-22T13:04:40.080Z,5.10
2023-05-22T13:07:07.276Z,6.80
2023-05-22T13:09:34.546Z,6.40
2023-05-22T13:12:01.785Z,6.65
2023-05-22T13:14:28.954Z,8.07
2023-05-22T13:16:56.254Z,6.50
2023-05-22T13:19:23.427Z,7.85
2023-05-22T13:21:50.649Z,7.18
2023-05-22T13:24:17.823Z,7.32
2023-05-22T13:26:45.042Z,5.95
2023-05-22T13:29:12.356Z,10.50
2023-05-22T13:31:39.696Z,6.28
2023-05-22T13:34:07.083Z,5.03
2023-05-22T13:36:34.374Z,7.78
2023-05-22T13:39:01.529Z,4.68
2023-05-22T13:41:28.854Z,7.95
2023-05-22T13:43:56.029Z,5.20
2023-05-22T13:46:23.441Z,5.75
2023-05-22T13:48:50.641Z,6.63
2023-05-22T13:51:17.855Z,7.30
2023-05-22T13:53:44.982Z,5.38
2023-05-22T13:56:12.232Z,4.32
2023-05-22T13:58:39.407Z,5.40
2023-05-22T14:01:06.689Z,9.23
2023-05-22T14:03:34.155Z,3.70
2023-05-22T14:06:01.915Z,7.15
2023-05-22T14:08:29.224Z,42.08
2023-05-22T14:10:56.458Z,35.38
2023-05-22T14:13:23.712Z,26.65
2023-05-22T14:15:50.888Z,10.32
2023-05-22T14:18:18.161Z,15.60
2023-05-22T14:20:46.518Z,65.47
2023-05-22T14:23:14.390Z,28.88
2023-05-22T14:25:43.245Z,141.40
2023-05-22T14:28:14.162Z,93.18
2023-05-22T14:30:41.572Z,36.60
2023-05-22T14:33:09.099Z,27.50
2023-05-22T14:35:36.333Z,13.77
2023-05-22T14:38:03.458Z,16.50
2023-05-22T14:40:30.990Z,8.23
2023-05-22T14:42:58.267Z,5.97
2023-05-22T14:45:25.754Z,6.18
2023-05-22T14:47:52.913Z,21.85
2023-05-22T14:50:20.984Z,42.40
2023-05-22T14:52:49.547Z,63.00
2023-05-22T14:55:17.550Z,9.13
2023-05-22T14:57:44.918Z,28.88
2023-05-22T15:00:12.855Z,9.48
2023-05-22T15:02:40.890Z,8.77
2023-05-22T15:05:08.691Z,12.15
2023-05-22T15:07:43.936Z,11.75
2023-05-22T15:10:12.537Z,22.85
2023-05-22T15:12:39.737Z,23.75
2023-05-22T15:15:07.470Z,13.45
2023-05-22T15:17:34.802Z,12.18
2023-05-22T15:20:02.032Z,8.40
2023-05-22T15:22:29.214Z,9.70
2023-05-22T15:25:09.713Z,8.55
2023-05-22T15:27:38.324Z,6.03
2023-05-22T15:30:06.789Z,7.60
2023-05-22T15:32:34.783Z,7.60
2023-05-22T15:35:02.247Z,7.85
2023-05-22T15:37:34.411Z,9.18
2023-05-22T15:40:04.333Z,8.65
2023-05-22T15:42:32.842Z,10.07
2023-05-22T15:45:00.481Z,6.72
2023-05-22T15:47:28.140Z,8.30
2023-05-22T15:49:55.365Z,7.20
2023-05-22T15:52:24.514Z,7.28
2023-05-22T15:54:51.886Z,6.03
2023-05-22T15:57:19.094Z,8.20
2023-05-22T15:59:47.434Z,7.68
2023-05-22T16:02:14.895Z,7.75
2023-05-22T16:04:42.236Z,4.53
2023-05-22T16:07:09.467Z,4.82
2023-05-22T16:09:36.670Z,6.55
2023-05-22T16:12:04.577Z,7.03
2023-05-22T16:14:32.032Z,5.00
2023-05-22T16:16:59.241Z,6.40
2023-05-22T16:19:29.010Z,6.88
2023-05-22T16:21:56.472Z,4.63
2023-05-22T16:24:24.137Z,5.50
2023-05-22T16:26:51.313Z,8.05
2023-05-22T16:29:20.748Z,7.10
2023-05-22T16:31:48.526Z,6.43
2023-05-22T16:34:15.849Z,6.45
2023-05-22T16:36:43.252Z,6.80
2023-05-22T16:39:10.643Z,7.18
2023-05-22T16:41:38.107Z,8.38
2023-05-22T16:44:05.433Z,3.72
2023-05-22T16:46:32.794Z,4.00
2023-05-22T16:49:00.070Z,6.47
2023-05-22T16:51:27.288Z,3.75
2023-05-22T16:53:57.033Z,8.18
2023-05-22T16:56:24.276Z,6.32
2023-05-22T16:58:51.471Z,11.25
2023-05-22T17:01:18.882Z,5.38
2023-05-22T17:03:46.765Z,5.97
2023-05-22T17:06:13.931Z,6.30
2023-05-22T17:08:41.545Z,3.47
2023-05-22T17:11:08.774Z,6.60
2023-05-22T17:13:35.958Z,3.95
2023-05-22T17:16:03.271Z,8.93
2023-05-22T17:18:30.665Z,5.85
2023-05-22T17:20:57.920Z,5.05
2023-05-22T17:23:25.212Z,4.97
2023-05-22T17:25:52.513Z,4.63
2023-05-22T17:28:19.777Z,6.32
2023-05-22T17:30:47.236Z,5.18
2023-05-22T17:33:14.491Z,5.55
2023-05-22T17:35:42.228Z,4.70
2023-05-22T17:38:09.384Z,6.07
2023-05-22T17:40:44.870Z,4.15
2023-05-22T17:43:13.772Z,5.20
2023-05-22T17:45:41.804Z,9.55
2023-05-22T17:48:09.288Z,4.88
2023-05-22T17:50:36.607Z,5.78
2023-05-22T17:53:03.779Z,3.83
2023-05-22T17:55:30.905Z,5.75
2023-05-22T17:57:59.644Z,6.65
2023-05-22T18:00:26.804Z,3.90
2023-05-22T18:02:54.101Z,8.48
2023-05-22T18:05:21.489Z,5.50
2023-05-22T18:07:48.705Z,3.97
2023-05-22T18:10:16.050Z,5.50
2023-05-22T18:12:43.191Z,4.70
2023-05-22T18:15:12.266Z,4.15
2023-05-22T18:17:41.263Z,4.25
2023-05-22T18:20:11.853Z,4.80
2023-05-22T18:22:39.934Z,7.18
2023-05-22T18:25:07.830Z,4.18
2023-05-22T18:27:35.739Z,3.97
2023-05-22T18:30:03.649Z,5.35
2023-05-22T18:32:31.700Z,7.95
2023-05-22T18:34:59.846Z,3.72
2023-05-22T18:37:27.126Z,4.75
2023-05-22T18:39:54.370Z,4.05
2023-05-22T18:42:21.690Z,5.50
2023-05-22T18:44:49.595Z,7.78
2023-05-22T18:47:17.132Z,5.10
2023-05-22T18:49:44.480Z,5.53
2023-05-22T18:52:11.764Z,3.72
2023-05-22T18:54:38.980Z,4.18
2023-05-22T18:57:06.431Z,3.40
2023-05-22T18:59:33.696Z,3.95
2023-05-22T19:02:00.967Z,4.13
2023-05-22T19:04:28.397Z,5.53
2023-05-22T19:06:56.494Z,6.30
2023-05-22T19:09:25.172Z,4.53
2023-05-22T19:11:52.348Z,4.35
2023-05-22T19:14:19.663Z,5.63
2023-05-22T19:16:46.973Z,4.50
2023-05-22T19:19:14.896Z,3.75
2023-05-22T19:21:42.279Z,4.97
2023-05-22T19:24:09.593Z,4.75
2023-05-22T19:26:36.822Z,3.92
2023-05-22T19:29:03.988Z,5.47
2023-05-22T19:31:31.246Z,6.38
2023-05-22T19:33:58.396Z,6.28
2023-05-22T19:36:25.766Z,5.78
2023-05-22T19:38:53.698Z,6.35
2023-05-22T19:41:23.032Z,4.05
2023-05-22T19:43:51.958Z,11.30
2023-05-22T19:46:19.388Z,6.47
2023-05-22T19:48:46.771Z,6.18
2023-05-22T19:51:14.133Z,5.80
2023-05-22T19:53:41.709Z,5.10
2023-05-22T19:56:09.047Z,4.57
2023-05-22T19:58:36.289Z,5.85
2023-05-22T20:01:03.629Z,6.13
2023-05-22T20:03:31.062Z,6.40
2023-05-22T20:05:58.435Z,6.78
2023-05-22T20:08:26.242Z,6.18
2023-05-22T20:10:53.483Z,5.78
2023-05-22T20:13:20.829Z,9.05
2023-05-22T20:15:48.120Z,7.72
2023-05-22T20:18:15.519Z,7.18
2023-05-22T20:20:42.873Z,4.90
2023-05-22T20:23:10.069Z,6.50
2023-05-22T20:25:37.889Z,7.57
2023-05-22T20:28:05.506Z,8.35
2023-05-22T20:30:32.959Z,6.38
2023-05-22T20:33:00.583Z,4.68
2023-05-22T20:35:30.581Z,5.15
2023-05-22T20:38:03.175Z,7.68
2023-05-22T20:40:34.343Z,7.07
2023-05-22T20:43:04.721Z,8.70
2023-05-22T20:45:32.569Z,8.52
2023-05-22T20:48:00.471Z,8.70
2023-05-22T20:50:27.867Z,6.53
2023-05-22T20:52:55.112Z,7.30
2023-05-22T20:55:22.421Z,9.48
2023-05-22T20:57:49.687Z,7.07
2023-05-22T21:00:17.886Z,10.48
2023-05-22T21:02:45.316Z,11.68
2023-05-22T21:05:13.548Z,11.60
2023-05-22T21:07:40.823Z,10.25
2023-05-22T21:10:08.569Z,6.55
2023-05-22T21:12:35.809Z,10.25
2023-05-22T21:15:03.108Z,8.75
2023-05-22T21:17:31.619Z,8.35
2023-05-22T21:19:58.941Z,8.70
2023-05-22T21:22:26.202Z,13.15
2023-05-22T21:24:53.435Z,11.10
2023-05-22T21:27:20.748Z,10.35
2023-05-22T21:29:48.140Z,8.43
2023-05-22T21:32:15.350Z,7.30
2023-05-22T21:34:42.613Z,7.85
2023-05-22T21:37:09.969Z,9.30
2023-05-22T21:39:37.197Z,8.75
2023-05-22T21:42:04.551Z,11.32
2023-05-22T21:44:32.467Z,9.77
2023-05-22T21:46:59.838Z,8.77
2023-05-22T21:49:27.387Z,9.75
2023-05-22T21:51:54.577Z,7.20
2023-05-22T21:54:21.732Z,7.88
2023-05-22T21:56:48.880Z,11.02
2023-05-22T21:59:16.401Z,10.27
2023-05-22T22:01:43.667Z,10.40
2023-05-22T22:04:11.172Z,10.88
2023-05-22T22:06:38.468Z,10.45
2023-05-22T22:09:05.866Z,9.93
2023-05-22T22:11:33.123Z,8.57
2023-05-22T22:14:00.368Z,7.85
2023-05-22T22:16:28.570Z,9.77
2023-05-22T22:18:56.017Z,12.80
2023-05-22T22:21:23.350Z,8.10
2023-05-22T22:23:50.691Z,9.73
2023-05-22T22:26:17.955Z,14.13
2023-05-22T22:28:45.252Z,9.63
2023-05-22T22:31:12.560Z,8.10
2023-05-22T22:33:39.776Z,10.40
2023-05-22T22:36:07.254Z,8.30
2023-05-22T22:38:35.421Z,9.63
2023-05-22T22:41:04.891Z,11.50
2023-05-22T22:43:32.057Z,12.40
2023-05-22T22:45:59.416Z,10.50
2023-05-22T22:48:26.744Z,11.07
2023-05-22T22:50:53.894Z,10.75
2023-05-22T22:53:21.207Z,10.77
2023-05-22T22:55:49.049Z,9.52
2023-05-22T22:58:18.797Z,11.20
2023-05-22T23:00:45.991Z,12.07
2023-05-22T23:03:13.195Z,13.45
2023-05-22T23:05:40.821Z,12.68
2023-05-22T23:08:08.222Z,12.15
2023-05-22T23:10:35.651Z,11.15
2023-05-22T23:13:02.820Z,15.10
2023-05-22T23:15:30.154Z,15.02
2023-05-22T23:17:57.398Z,13.65
2023-05-22T23:20:24.642Z,10.23
2023-05-22T23:22:51.858Z,10.57
2023-05-22T23:25:19.031Z,10.63
2023-05-22T23:27:46.406Z,12.27
2023-05-22T23:30:13.681Z,9.80
2023-05-22T23:32:41.021Z,13.65
2023-05-22T23:35:09.701Z,12.27
2023-05-22T23:37:37.251Z,10.68
2023-05-22T23:40:06.415Z,12.02
2023-05-22T23:42:35.372Z,10.45
2023-05-22T23:45:06.095Z,15.45
2023-05-22T23:47:33.328Z,13.13
2023-05-22T23:50:00.617Z,11.50
2023-05-22T23:52:27.912Z,13.77
2023-05-22T23:54:55.099Z,11.10
2023-05-22T23:57:22.315Z,11.88
2023-05-22T23:59:49.478Z,11.73
